sensor_id;sensor_type;location;lat;lon;timestamp;pressure;altitude;pressure_sealevel;temperature;humidity
43711;BME280;29309;42.682;23.372;2022-09-01T00:01:14;95023.50;;;19.61;76.34
43711;BME280;29309;42.682;23.372;2022-09-01T00:03:48;95027.09;;;19.66;75.98
43711;BME280;29309;42.682;23.372;2022-09-01T00:06:17;95023.41;;;19.53;76.48
43711;BME280;29309;42.682;23.372;2022-09-01T00:08:51;95022.69;;;19.51;76.89
43711;BME280;29309;42.682;23.372;2022-09-01T00:11:18;95017.16;;;19.61;76.64
43711;BME280;29309;42.682;23.372;2022-09-01T00:13:44;95024.25;;;19.64;76.27
43711;BME280;29309;42.682;23.372;2022-09-01T00:16:10;95016.50;;;19.64;76.29
43711;BME280;29309;42.682;23.372;2022-09-01T00:18:39;95011.59;;;19.65;76.16
43711;BME280;29309;42.682;23.372;2022-09-01T00:21:07;95014.34;;;19.61;76.14
43711;BME280;29309;42.682;23.372;2022-09-01T00:23:33;95010.69;;;19.48;76.17
43711;BME280;29309;42.682;23.372;2022-09-01T00:25:58;95008.59;;;19.51;75.62
43711;BME280;29309;42.682;23.372;2022-09-01T00:28:24;95009.31;;;19.53;75.92
43711;BME280;29309;42.682;23.372;2022-09-01T00:30:49;95006.88;;;19.28;76.26
43711;BME280;29309;42.682;23.372;2022-09-01T00:33:15;95010.50;;;19.36;75.86
43711;BME280;29309;42.682;23.372;2022-09-01T00:35:40;95008.84;;;19.19;75.96
43711;BME280;29309;42.682;23.372;2022-09-01T00:38:06;95009.16;;;18.91;77.06
43711;BME280;29309;42.682;23.372;2022-09-01T00:40:31;95009.00;;;18.81;78.30
43711;BME280;29309;42.682;23.372;2022-09-01T00:42:57;95015.97;;;18.76;79.11
43711;BME280;29309;42.682;23.372;2022-09-01T00:45:24;95019.50;;;18.77;79.50
43711;BME280;29309;42.682;23.372;2022-09-01T00:47:50;95019.44;;;18.75;79.89
43711;BME280;29309;42.682;23.372;2022-09-01T00:50:18;95023.72;;;18.78;80.07
43711;BME280;29309;42.682;23.372;2022-09-01T00:52:50;95037.88;;;18.84;79.83
43711;BME280;29309;42.682;23.372;2022-09-01T00:55:22;95025.91;;;18.83;79.69
43711;BME280;29309;42.682;23.372;2022-09-01T00:57:48;95026.56;;;18.80;79.53
43711;BME280;29309;42.682;23.372;2022-09-01T01:00:27;95027.50;;;18.94;79.11
43711;BME280;29309;42.682;23.372;2022-09-01T01:02:53;95033.16;;;18.96;78.70
43711;BME280;29309;42.682;23.372;2022-09-01T01:05:28;95024.69;;;18.96;78.72
43711;BME280;29309;42.682;23.372;2022-09-01T01:07:58;95028.16;;;18.93;78.53
43711;BME280;29309;42.682;23.372;2022-09-01T01:10:25;95039.41;;;18.91;78.48
43711;BME280;29309;42.682;23.372;2022-09-01T01:12:50;95026.75;;;18.92;77.93
43711;BME280;29309;42.682;23.372;2022-09-01T01:15:19;95028.94;;;18.95;77.60
43711;BME280;29309;42.682;23.372;2022-09-01T01:17:44;95033.84;;;18.95;77.50
43711;BME280;29309;42.682;23.372;2022-09-01T01:20:13;95035.44;;;19.10;76.88
43711;BME280;29309;42.682;23.372;2022-09-01T01:26:02;95034.56;;;18.97;77.39
43711;BME280;29309;42.682;23.372;2022-09-01T01:28:35;95036.59;;;18.91;77.55
43711;BME280;29309;42.682;23.372;2022-09-01T01:31:13;95035.75;;;18.82;77.69
43711;BME280;29309;42.682;23.372;2022-09-01T01:33:46;95033.06;;;18.90;77.38
43711;BME280;29309;42.682;23.372;2022-09-01T01:36:22;95030.44;;;19.02;76.23
43711;BME280;29309;42.682;23.372;2022-09-01T01:38:59;95031.22;;;18.63;77.66
43711;BME280;29309;42.682;23.372;2022-09-01T01:41:28;95029.09;;;18.61;77.91
43711;BME280;29309;42.682;23.372;2022-09-01T01:43:59;95035.03;;;18.42;78.98
43711;BME280;29309;42.682;23.372;2022-09-01T01:46:29;95037.97;;;18.48;79.24
43711;BME280;29309;42.682;23.372;2022-09-01T01:48:55;95047.28;;;18.18;80.11
43711;BME280;29309;42.682;23.372;2022-09-01T01:51:21;95038.53;;;18.00;81.77
43711;BME280;29309;42.682;23.372;2022-09-01T01:53:52;95044.81;;;17.99;82.32
43711;BME280;29309;42.682;23.372;2022-09-01T01:56:20;95056.19;;;18.05;81.43
43711;BME280;29309;42.682;23.372;2022-09-01T01:58:50;95052.88;;;18.16;80.98
43711;BME280;29309;42.682;23.372;2022-09-01T02:01:20;95054.91;;;18.12;81.17
43711;BME280;29309;42.682;23.372;2022-09-01T02:03:48;95054.47;;;18.28;80.58
43711;BME280;29309;42.682;23.372;2022-09-01T02:06:17;95047.78;;;18.07;80.76
43711;BME280;29309;42.682;23.372;2022-09-01T02:08:47;95051.19;;;18.01;81.69
43711;BME280;29309;42.682;23.372;2022-09-01T02:11:13;95055.75;;;17.83;83.11
43711;BME280;29309;42.682;23.372;2022-09-01T02:13:41;95064.19;;;17.85;82.42
43711;BME280;29309;42.682;23.372;2022-09-01T02:16:09;95058.59;;;17.85;82.68
43711;BME280;29309;42.682;23.372;2022-09-01T02:18:39;95062.81;;;17.86;82.50
43711;BME280;29309;42.682;23.372;2022-09-01T02:21:07;95063.47;;;17.84;82.61
43711;BME280;29309;42.682;23.372;2022-09-01T02:23:39;95057.84;;;17.82;82.50
43711;BME280;29309;42.682;23.372;2022-09-01T02:26:06;95057.91;;;17.86;82.05
43711;BME280;29309;42.682;23.372;2022-09-01T02:28:35;95058.78;;;17.95;82.32
43711;BME280;29309;42.682;23.372;2022-09-01T02:31:02;95053.28;;;18.01;82.35
43711;BME280;29309;42.682;23.372;2022-09-01T02:33:30;95064.00;;;18.10;82.00
43711;BME280;29309;42.682;23.372;2022-09-01T02:35:59;95058.34;;;18.08;81.53
43711;BME280;29309;42.682;23.372;2022-09-01T02:38:26;95052.75;;;18.10;81.33
43711;BME280;29309;42.682;23.372;2022-09-01T02:40:54;95052.28;;;18.22;80.92
43711;BME280;29309;42.682;23.372;2022-09-01T02:43:20;95048.84;;;18.28;79.60
43711;BME280;29309;42.682;23.372;2022-09-01T02:45:50;95046.75;;;18.28;79.47
43711;BME280;29309;42.682;23.372;2022-09-01T02:48:19;95043.22;;;18.28;79.17
43711;BME280;29309;42.682;23.372;2022-09-01T02:50:49;95040.34;;;18.24;79.47
43711;BME280;29309;42.682;23.372;2022-09-01T02:53:15;95044.00;;;18.30;78.77
43711;BME280;29309;42.682;23.372;2022-09-01T02:55:41;95036.84;;;18.23;78.92
43711;BME280;29309;42.682;23.372;2022-09-01T02:58:08;95044.50;;;18.20;79.12
43711;BME280;29309;42.682;23.372;2022-09-01T03:00:43;95034.84;;;18.30;78.45
43711;BME280;29309;42.682;23.372;2022-09-01T03:03:09;95036.31;;;18.33;78.20
43711;BME280;29309;42.682;23.372;2022-09-01T03:05:42;95034.94;;;18.34;77.94
43711;BME280;29309;42.682;23.372;2022-09-01T03:08:10;95032.13;;;17.96;78.29
43711;BME280;29309;42.682;23.372;2022-09-01T03:10:39;95034.03;;;17.87;78.89
43711;BME280;29309;42.682;23.372;2022-09-01T03:13:22;95033.81;;;18.11;77.73
43711;BME280;29309;42.682;23.372;2022-09-01T03:15:49;95030.75;;;17.99;77.33
43711;BME280;29309;42.682;23.372;2022-09-01T03:18:16;95033.63;;;18.01;76.74
43711;BME280;29309;42.682;23.372;2022-09-01T03:20:45;95036.63;;;17.75;77.91
43711;BME280;29309;42.682;23.372;2022-09-01T03:23:13;95030.13;;;17.66;79.07
43711;BME280;29309;42.682;23.372;2022-09-01T03:25:44;95033.66;;;17.67;79.69
43711;BME280;29309;42.682;23.372;2022-09-01T03:28:11;95040.81;;;17.74;79.71
43711;BME280;29309;42.682;23.372;2022-09-01T03:30:39;95036.09;;;17.83;79.69
43711;BME280;29309;42.682;23.372;2022-09-01T03:33:08;95034.75;;;17.86;78.80
43711;BME280;29309;42.682;23.372;2022-09-01T03:35:34;95037.66;;;17.92;79.08
43711;BME280;29309;42.682;23.372;2022-09-01T03:38:01;95040.53;;;17.96;78.50
43711;BME280;29309;42.682;23.372;2022-09-01T03:40:30;95039.72;;;17.89;78.98
43711;BME280;29309;42.682;23.372;2022-09-01T03:43:02;95043.75;;;17.80;79.24
43711;BME280;29309;42.682;23.372;2022-09-01T03:45:28;95040.25;;;17.80;79.23
43711;BME280;29309;42.682;23.372;2022-09-01T03:47:55;95047.94;;;17.79;79.21
43711;BME280;29309;42.682;23.372;2022-09-01T03:50:23;95054.97;;;17.80;79.51
43711;BME280;29309;42.682;23.372;2022-09-01T03:52:54;95050.16;;;17.85;79.46
43711;BME280;29309;42.682;23.372;2022-09-01T03:55:31;95040.34;;;17.86;79.63
43711;BME280;29309;42.682;23.372;2022-09-01T03:58:04;95043.28;;;17.92;79.35
43711;BME280;29309;42.682;23.372;2022-09-01T04:00:38;95039.00;;;17.89;79.64
43711;BME280;29309;42.682;23.372;2022-09-01T04:03:08;95049.59;;;17.92;79.38
43711;BME280;29309;42.682;23.372;2022-09-01T04:05:38;95036.22;;;17.91;79.26
43711;BME280;29309;42.682;23.372;2022-09-01T04:08:06;95043.66;;;18.12;78.03
43711;BME280;29309;42.682;23.372;2022-09-01T04:10:36;95057.59;;;18.06;77.40
43711;BME280;29309;42.682;23.372;2022-09-01T04:13:06;95053.84;;;17.93;77.79
43711;BME280;29309;42.682;23.372;2022-09-01T04:15:36;95050.31;;;17.93;78.17
43711;BME280;29309;42.682;23.372;2022-09-01T04:18:02;95047.47;;;17.91;78.68
43711;BME280;29309;42.682;23.372;2022-09-01T04:20:41;95045.59;;;18.03;78.13
43711;BME280;29309;42.682;23.372;2022-09-01T04:23:25;95047.06;;;18.06;77.83
43711;BME280;29309;42.682;23.372;2022-09-01T04:25:53;95042.56;;;17.91;78.38
43711;BME280;29309;42.682;23.372;2022-09-01T04:28:25;95053.66;;;17.83;78.97
43711;BME280;29309;42.682;23.372;2022-09-01T04:30:55;95053.72;;;17.87;79.33
43711;BME280;29309;42.682;23.372;2022-09-01T04:33:26;95046.19;;;17.98;79.47
43711;BME280;29309;42.682;23.372;2022-09-01T04:36:02;95042.31;;;18.15;78.79
43711;BME280;29309;42.682;23.372;2022-09-01T04:38:28;95042.91;;;18.09;78.27
43711;BME280;29309;42.682;23.372;2022-09-01T04:40:55;95042.78;;;18.03;78.85
43711;BME280;29309;42.682;23.372;2022-09-01T04:43:23;95051.22;;;18.03;79.60
43711;BME280;29309;42.682;23.372;2022-09-01T04:45:49;95052.72;;;18.08;79.88
43711;BME280;29309;42.682;23.372;2022-09-01T04:48:19;95051.41;;;18.13;79.72
43711;BME280;29309;42.682;23.372;2022-09-01T04:50:47;95038.19;;;18.20;79.76
43711;BME280;29309;42.682;23.372;2022-09-01T04:53:14;95043.91;;;18.26;79.59
43711;BME280;29309;42.682;23.372;2022-09-01T04:55:40;95044.66;;;18.29;79.50
43711;BME280;29309;42.682;23.372;2022-09-01T04:58:10;95046.28;;;18.42;79.42
43711;BME280;29309;42.682;23.372;2022-09-01T05:00:42;95036.66;;;18.51;78.40
43711;BME280;29309;42.682;23.372;2022-09-01T05:03:09;95050.88;;;18.63;77.96
43711;BME280;29309;42.682;23.372;2022-09-01T05:05:40;95042.34;;;18.55;78.19
43711;BME280;29309;42.682;23.372;2022-09-01T05:08:11;95044.47;;;18.56;78.26
43711;BME280;29309;42.682;23.372;2022-09-01T05:10:44;95047.56;;;18.73;77.67
43711;BME280;29309;42.682;23.372;2022-09-01T05:13:13;95044.09;;;18.76;77.59
43711;BME280;29309;42.682;23.372;2022-09-01T05:15:43;95044.09;;;18.76;77.01
43711;BME280;29309;42.682;23.372;2022-09-01T05:18:15;95041.81;;;18.66;77.43
43711;BME280;29309;42.682;23.372;2022-09-01T05:20:48;95037.63;;;18.67;77.83
43711;BME280;29309;42.682;23.372;2022-09-01T05:23:15;95043.94;;;18.68;78.21
43711;BME280;29309;42.682;23.372;2022-09-01T05:25:49;95039.84;;;18.75;77.86
43711;BME280;29309;42.682;23.372;2022-09-01T05:28:17;95040.72;;;18.86;77.05
43711;BME280;29309;42.682;23.372;2022-09-01T05:30:45;95049.84;;;18.84;77.08
43711;BME280;29309;42.682;23.372;2022-09-01T05:33:14;95046.97;;;18.80;77.14
43711;BME280;29309;42.682;23.372;2022-09-01T05:35:59;95044.75;;;18.73;77.60
43711;BME280;29309;42.682;23.372;2022-09-01T05:38:26;95044.59;;;18.64;77.66
43711;BME280;29309;42.682;23.372;2022-09-01T05:41:03;95035.44;;;18.64;77.48
43711;BME280;29309;42.682;23.372;2022-09-01T05:43:33;95034.66;;;18.57;78.05
43711;BME280;29309;42.682;23.372;2022-09-01T05:46:01;95041.44;;;18.46;78.37
43711;BME280;29309;42.682;23.372;2022-09-01T05:48:30;95033.56;;;18.37;78.97
43711;BME280;29309;42.682;23.372;2022-09-01T05:50:57;95041.81;;;18.27;79.15
43711;BME280;29309;42.682;23.372;2022-09-01T05:53:23;95043.88;;;18.24;80.06
43711;BME280;29309;42.682;23.372;2022-09-01T05:55:50;95038.47;;;18.36;79.91
43711;BME280;29309;42.682;23.372;2022-09-01T05:58:23;95047.66;;;18.39;79.37
43711;BME280;29309;42.682;23.372;2022-09-01T06:00:51;95045.53;;;18.37;78.98
43711;BME280;29309;42.682;23.372;2022-09-01T06:03:21;95048.34;;;18.37;79.14
43711;BME280;29309;42.682;23.372;2022-09-01T06:05:48;95040.59;;;18.38;79.62
43711;BME280;29309;42.682;23.372;2022-09-01T06:08:22;95033.75;;;18.47;79.81
43711;BME280;29309;42.682;23.372;2022-09-01T06:10:48;95035.28;;;18.54;80.23
43711;BME280;29309;42.682;23.372;2022-09-01T06:13:15;95034.28;;;18.77;78.64
43711;BME280;29309;42.682;23.372;2022-09-01T06:15:42;95035.06;;;18.84;78.20
43711;BME280;29309;42.682;23.372;2022-09-01T06:18:10;95033.00;;;18.86;77.69
43711;BME280;29309;42.682;23.372;2022-09-01T06:20:41;95034.50;;;18.91;77.85
43711;BME280;29309;42.682;23.372;2022-09-01T06:23:08;95032.50;;;19.00;77.33
43711;BME280;29309;42.682;23.372;2022-09-01T06:25:37;95027.28;;;18.80;78.21
43711;BME280;29309;42.682;23.372;2022-09-01T06:28:04;95035.22;;;18.94;78.05
43711;BME280;29309;42.682;23.372;2022-09-01T06:30:30;95031.03;;;18.95;77.96
43711;BME280;29309;42.682;23.372;2022-09-01T06:33:01;95034.84;;;19.15;77.60
43711;BME280;29309;42.682;23.372;2022-09-01T06:35:27;95040.69;;;19.32;76.43
43711;BME280;29309;42.682;23.372;2022-09-01T06:37:55;95043.53;;;19.34;75.68
43711;BME280;29309;42.682;23.372;2022-09-01T06:40:21;95035.25;;;19.44;75.62
43711;BME280;29309;42.682;23.372;2022-09-01T06:42:51;95028.34;;;19.53;74.49
43711;BME280;29309;42.682;23.372;2022-09-01T06:45:19;95019.19;;;19.52;74.51
43711;BME280;29309;42.682;23.372;2022-09-01T06:47:46;95021.09;;;19.40;74.14
43711;BME280;29309;42.682;23.372;2022-09-01T06:50:19;95030.06;;;19.24;75.52
43711;BME280;29309;42.682;23.372;2022-09-01T06:52:47;95021.88;;;19.42;75.55
43711;BME280;29309;42.682;23.372;2022-09-01T06:55:15;95022.72;;;19.55;75.45
43711;BME280;29309;42.682;23.372;2022-09-01T06:57:41;95022.28;;;19.75;74.62
43711;BME280;29309;42.682;23.372;2022-09-01T07:00:12;95016.28;;;20.06;74.08
43711;BME280;29309;42.682;23.372;2022-09-01T07:02:47;95023.50;;;20.24;73.90
43711;BME280;29309;42.682;23.372;2022-09-01T07:05:17;95030.88;;;20.55;73.49
43711;BME280;29309;42.682;23.372;2022-09-01T07:07:51;95024.81;;;20.91;70.08
43711;BME280;29309;42.682;23.372;2022-09-01T07:10:19;95028.72;;;21.40;68.51
43711;BME280;29309;42.682;23.372;2022-09-01T07:12:54;95035.97;;;21.83;67.31
43711;BME280;29309;42.682;23.372;2022-09-01T07:15:21;95023.41;;;22.29;65.84
43711;BME280;29309;42.682;23.372;2022-09-01T07:17:57;95023.50;;;22.83;63.41
43711;BME280;29309;42.682;23.372;2022-09-01T07:20:26;95017.13;;;23.21;60.57
43711;BME280;29309;42.682;23.372;2022-09-01T07:22:54;95007.88;;;23.49;59.85
43711;BME280;29309;42.682;23.372;2022-09-01T07:25:20;95013.38;;;23.93;59.22
43711;BME280;29309;42.682;23.372;2022-09-01T07:27:46;95020.25;;;24.35;57.85
43711;BME280;29309;42.682;23.372;2022-09-01T07:30:17;95017.19;;;24.73;55.86
43711;BME280;29309;42.682;23.372;2022-09-01T07:32:43;95015.47;;;25.13;54.29
43711;BME280;29309;42.682;23.372;2022-09-01T07:35:10;95015.13;;;25.47;54.59
43711;BME280;29309;42.682;23.372;2022-09-01T07:37:36;95023.13;;;25.95;52.21
43711;BME280;29309;42.682;23.372;2022-09-01T07:40:08;95014.31;;;26.20;51.36
43711;BME280;29309;42.682;23.372;2022-09-01T07:42:36;95010.94;;;26.58;51.43
43711;BME280;29309;42.682;23.372;2022-09-01T07:45:05;95018.78;;;27.05;50.29
43711;BME280;29309;42.682;23.372;2022-09-01T07:47:34;95016.28;;;27.25;49.04
43711;BME280;29309;42.682;23.372;2022-09-01T07:50:07;95010.50;;;27.70;48.84
43711;BME280;29309;42.682;23.372;2022-09-01T07:52:39;95011.22;;;28.06;45.81
43711;BME280;29309;42.682;23.372;2022-09-01T07:55:13;95005.75;;;28.28;45.47
43711;BME280;29309;42.682;23.372;2022-09-01T07:57:42;95009.59;;;28.48;44.69
43711;BME280;29309;42.682;23.372;2022-09-01T08:00:14;94985.78;;;28.59;44.41
43711;BME280;29309;42.682;23.372;2022-09-01T08:02:43;94999.63;;;28.79;43.96
43711;BME280;29309;42.682;23.372;2022-09-01T08:05:14;94997.09;;;28.96;43.61
43711;BME280;29309;42.682;23.372;2022-09-01T08:07:42;95004.94;;;29.26;42.64
43711;BME280;29309;42.682;23.372;2022-09-01T08:10:08;95003.06;;;29.44;42.23
43711;BME280;29309;42.682;23.372;2022-09-01T08:12:34;95007.38;;;29.69;42.03
43711;BME280;29309;42.682;23.372;2022-09-01T08:15:08;95005.78;;;30.01;41.82
43711;BME280;29309;42.682;23.372;2022-09-01T08:17:37;94994.44;;;30.22;40.95
43711;BME280;29309;42.682;23.372;2022-09-01T08:20:04;94991.56;;;30.47;40.74
43711;BME280;29309;42.682;23.372;2022-09-01T08:22:34;94998.75;;;30.70;40.12
43711;BME280;29309;42.682;23.372;2022-09-01T08:25:04;94998.16;;;30.89;39.60
43711;BME280;29309;42.682;23.372;2022-09-01T08:27:31;94995.75;;;30.97;39.43
43711;BME280;29309;42.682;23.372;2022-09-01T08:29:58;95000.38;;;31.09;38.09
43711;BME280;29309;42.682;23.372;2022-09-01T08:32:25;95001.22;;;31.05;38.18
43711;BME280;29309;42.682;23.372;2022-09-01T08:34:51;94989.75;;;31.05;37.70
43711;BME280;29309;42.682;23.372;2022-09-01T08:37:17;94981.41;;;30.74;38.25
43711;BME280;29309;42.682;23.372;2022-09-01T08:39:44;94978.59;;;30.95;37.95
43711;BME280;29309;42.682;23.372;2022-09-01T08:42:28;94983.06;;;31.13;37.96
43711;BME280;29309;42.682;23.372;2022-09-01T08:45:35;94976.19;;;31.04;37.29
43711;BME280;29309;42.682;23.372;2022-09-01T08:48:28;94984.16;;;31.22;37.76
43711;BME280;29309;42.682;23.372;2022-09-01T08:54:12;94977.19;;;31.17;36.71
43711;BME280;29309;42.682;23.372;2022-09-01T08:56:40;94976.69;;;30.88;36.56
43711;BME280;29309;42.682;23.372;2022-09-01T08:59:09;94963.69;;;30.91;36.63
43711;BME280;29309;42.682;23.372;2022-09-01T09:04:31;94961.06;;;31.05;36.63
43711;BME280;29309;42.682;23.372;2022-09-01T09:09:48;94953.22;;;30.36;37.91
43711;BME280;29309;42.682;23.372;2022-09-01T09:15:44;94942.94;;;30.67;37.45
43711;BME280;29309;42.682;23.372;2022-09-01T09:18:13;94948.28;;;30.80;36.90
43711;BME280;29309;42.682;23.372;2022-09-01T09:20:41;94950.56;;;30.98;36.50
43711;BME280;29309;42.682;23.372;2022-09-01T09:23:19;94942.25;;;30.44;35.89
43711;BME280;29309;42.682;23.372;2022-09-01T09:25:48;94943.34;;;29.81;37.86
43711;BME280;29309;42.682;23.372;2022-09-01T09:28:15;94939.56;;;29.64;38.40
43711;BME280;29309;42.682;23.372;2022-09-01T09:30:40;94938.09;;;29.65;38.57
43711;BME280;29309;42.682;23.372;2022-09-01T09:33:07;94930.03;;;29.71;38.72
43711;BME280;29309;42.682;23.372;2022-09-01T09:35:40;94935.09;;;29.96;38.82
43711;BME280;29309;42.682;23.372;2022-09-01T09:41:07;94921.66;;;29.65;37.63
43711;BME280;29309;42.682;23.372;2022-09-01T09:43:41;94933.63;;;29.97;37.04
43711;BME280;29309;42.682;23.372;2022-09-01T09:51:33;94916.53;;;29.95;37.48
43711;BME280;29309;42.682;23.372;2022-09-01T09:54:17;94918.34;;;30.29;36.81
43711;BME280;29309;42.682;23.372;2022-09-01T09:56:43;94921.25;;;30.52;35.93
43711;BME280;29309;42.682;23.372;2022-09-01T09:59:27;94916.31;;;30.71;35.51
43711;BME280;29309;42.682;23.372;2022-09-01T10:01:58;94916.34;;;30.48;35.31
43711;BME280;29309;42.682;23.372;2022-09-01T10:04:36;94911.72;;;30.35;35.75
43711;BME280;29309;42.682;23.372;2022-09-01T10:09:49;94917.06;;;29.74;34.53
43711;BME280;29309;42.682;23.372;2022-09-01T10:12:15;94910.91;;;29.91;35.19
43711;BME280;29309;42.682;23.372;2022-09-01T10:14:45;94907.13;;;30.21;34.53
43711;BME280;29309;42.682;23.372;2022-09-01T10:17:14;94905.44;;;30.30;34.03
43711;BME280;29309;42.682;23.372;2022-09-01T10:19:51;94905.41;;;30.07;33.77
43711;BME280;29309;42.682;23.372;2022-09-01T10:22:19;94904.19;;;29.51;35.33
43711;BME280;29309;42.682;23.372;2022-09-01T10:24:45;94892.22;;;29.44;36.24
43711;BME280;29309;42.682;23.372;2022-09-01T10:27:27;94891.84;;;29.56;35.78
43711;BME280;29309;42.682;23.372;2022-09-01T10:30:17;94896.94;;;29.27;36.96
43711;BME280;29309;42.682;23.372;2022-09-01T10:32:55;94889.44;;;29.13;36.37
43711;BME280;29309;42.682;23.372;2022-09-01T10:35:34;94886.47;;;29.17;36.26
43711;BME280;29309;42.682;23.372;2022-09-01T10:38:13;94882.44;;;29.08;36.28
43711;BME280;29309;42.682;23.372;2022-09-01T10:40:41;94890.63;;;28.96;36.76
43711;BME280;29309;42.682;23.372;2022-09-01T10:43:46;94888.34;;;28.73;37.28
43711;BME280;29309;42.682;23.372;2022-09-01T10:48:45;94885.91;;;28.55;37.39
43711;BME280;29309;42.682;23.372;2022-09-01T10:53:50;94881.50;;;27.66;40.59
43711;BME280;29309;42.682;23.372;2022-09-01T10:56:35;94880.41;;;27.83;40.47
43711;BME280;29309;42.682;23.372;2022-09-01T11:07:32;94867.28;;;27.97;40.14
43711;BME280;29309;42.682;23.372;2022-09-01T11:15:45;94857.41;;;27.92;40.09
43711;BME280;29309;42.682;23.372;2022-09-01T11:18:30;94859.47;;;27.95;40.79
43711;BME280;29309;42.682;23.372;2022-09-01T11:21:35;94855.47;;;28.15;39.77
43711;BME280;29309;42.682;23.372;2022-09-01T11:27:03;94846.88;;;27.84;40.10
43711;BME280;29309;42.682;23.372;2022-09-01T11:29:57;94854.41;;;27.98;40.02
43711;BME280;29309;42.682;23.372;2022-09-01T11:32:30;94843.88;;;27.90;39.73
43711;BME280;29309;42.682;23.372;2022-09-01T11:34:59;94842.78;;;28.08;39.51
43711;BME280;29309;42.682;23.372;2022-09-01T11:37:26;94847.25;;;28.29;39.32
43711;BME280;29309;42.682;23.372;2022-09-01T11:39:58;94837.34;;;28.26;38.90
43711;BME280;29309;42.682;23.372;2022-09-01T11:47:41;94823.97;;;27.88;39.71
43711;BME280;29309;42.682;23.372;2022-09-01T11:50:26;94809.41;;;27.69;40.51
43711;BME280;29309;42.682;23.372;2022-09-01T11:53:02;94813.50;;;28.09;40.65
43711;BME280;29309;42.682;23.372;2022-09-01T11:56:10;94812.06;;;28.66;39.74
43711;BME280;29309;42.682;23.372;2022-09-01T11:58:36;94806.53;;;29.40;39.11
43711;BME280;29309;42.682;23.372;2022-09-01T12:01:21;94802.84;;;29.66;37.26
43711;BME280;29309;42.682;23.372;2022-09-01T12:03:51;94815.81;;;29.41;38.63
43711;BME280;29309;42.682;23.372;2022-09-01T12:06:28;94807.56;;;29.28;38.68
43711;BME280;29309;42.682;23.372;2022-09-01T12:09:02;94806.22;;;28.99;39.56
43711;BME280;29309;42.682;23.372;2022-09-01T12:11:34;94806.31;;;29.71;38.47
43711;BME280;29309;42.682;23.372;2022-09-01T12:14:09;94806.84;;;30.00;37.94
43711;BME280;29309;42.682;23.372;2022-09-01T12:16:40;94808.22;;;29.78;37.93
43711;BME280;29309;42.682;23.372;2022-09-01T12:19:06;94795.72;;;30.13;37.80
43711;BME280;29309;42.682;23.372;2022-09-01T12:21:40;94803.03;;;30.08;38.40
43711;BME280;29309;42.682;23.372;2022-09-01T12:24:22;94797.41;;;29.81;38.74
43711;BME280;29309;42.682;23.372;2022-09-01T12:26:53;94796.81;;;29.54;38.82
43711;BME280;29309;42.682;23.372;2022-09-01T12:29:21;94795.97;;;29.08;39.59
43711;BME280;29309;42.682;23.372;2022-09-01T12:31:48;94786.31;;;28.95;39.92
43711;BME280;29309;42.682;23.372;2022-09-01T12:37:18;94791.78;;;27.92;42.56
43711;BME280;29309;42.682;23.372;2022-09-01T12:39:52;94789.00;;;28.18;41.26
43711;BME280;29309;42.682;23.372;2022-09-01T12:44:56;94791.53;;;28.02;41.93
43711;BME280;29309;42.682;23.372;2022-09-01T12:50:02;94785.66;;;27.48;43.81
43711;BME280;29309;42.682;23.372;2022-09-01T12:52:29;94783.09;;;27.32;43.43
43711;BME280;29309;42.682;23.372;2022-09-01T12:57:31;94785.94;;;27.34;44.51
43711;BME280;29309;42.682;23.372;2022-09-01T13:02:36;94776.91;;;27.56;43.28
43711;BME280;29309;42.682;23.372;2022-09-01T13:08:10;94774.22;;;27.81;44.00
43711;BME280;29309;42.682;23.372;2022-09-01T13:10:39;94781.34;;;27.80;44.27
43711;BME280;29309;42.682;23.372;2022-09-01T13:13:05;94768.91;;;27.94;43.73
43711;BME280;29309;42.682;23.372;2022-09-01T13:15:32;94772.00;;;28.14;43.58
43711;BME280;29309;42.682;23.372;2022-09-01T13:17:58;94761.22;;;28.17;43.41
43711;BME280;29309;42.682;23.372;2022-09-01T13:20:24;94767.50;;;28.23;42.69
43711;BME280;29309;42.682;23.372;2022-09-01T13:22:52;94758.00;;;28.02;42.41
43711;BME280;29309;42.682;23.372;2022-09-01T13:25:20;94761.44;;;28.09;42.31
43711;BME280;29309;42.682;23.372;2022-09-01T13:27:46;94759.06;;;27.88;42.80
43711;BME280;29309;42.682;23.372;2022-09-01T13:30:18;94758.59;;;28.07;42.27
43711;BME280;29309;42.682;23.372;2022-09-01T13:32:45;94766.03;;;28.24;41.68
43711;BME280;29309;42.682;23.372;2022-09-01T13:35:14;94768.00;;;28.01;41.89
43711;BME280;29309;42.682;23.372;2022-09-01T13:37:44;94762.03;;;27.82;42.30
43711;BME280;29309;42.682;23.372;2022-09-01T13:40:12;94765.09;;;27.74;42.78
43711;BME280;29309;42.682;23.372;2022-09-01T13:42:42;94766.63;;;27.69;41.68
43711;BME280;29309;42.682;23.372;2022-09-01T13:45:09;94767.94;;;27.42;42.64
43711;BME280;29309;42.682;23.372;2022-09-01T13:47:40;94769.13;;;27.20;43.01
43711;BME280;29309;42.682;23.372;2022-09-01T13:50:07;94768.41;;;27.19;43.44
43711;BME280;29309;42.682;23.372;2022-09-01T13:52:33;94767.03;;;27.51;43.11
43711;BME280;29309;42.682;23.372;2022-09-01T13:54:59;94763.22;;;27.30;45.18
43711;BME280;29309;42.682;23.372;2022-09-01T13:57:25;94771.88;;;26.89;47.26
43711;BME280;29309;42.682;23.372;2022-09-01T13:59:51;94765.00;;;26.76;47.93
43711;BME280;29309;42.682;23.372;2022-09-01T14:02:17;94752.03;;;26.46;49.16
43711;BME280;29309;42.682;23.372;2022-09-01T14:04:42;94756.00;;;26.24;49.74
43711;BME280;29309;42.682;23.372;2022-09-01T14:07:08;94763.88;;;26.20;50.51
43711;BME280;29309;42.682;23.372;2022-09-01T14:09:33;94760.25;;;26.23;50.91
43711;BME280;29309;42.682;23.372;2022-09-01T14:11:59;94751.13;;;26.19;51.47
43711;BME280;29309;42.682;23.372;2022-09-01T14:14:24;94767.06;;;26.00;52.08
43711;BME280;29309;42.682;23.372;2022-09-01T14:16:50;94761.00;;;25.79;52.20